createdAt,value
2023-01-12T00:00:27.714Z,10.40
2023-01-12T00:06:47.140Z,10.40
2023-01-12T00:12:41.504Z,10.30
2023-01-12T00:18:36.010Z,10.30
2023-01-12T00:24:55.966Z,10.20
2023-01-12T00:31:14.396Z,10.20
2023-01-12T00:37:10.819Z,10.20
2023-01-12T00:43:31.725Z,10.10
2023-01-12T00:49:50.235Z,10.20
2023-01-12T00:54:39.700Z,10.20
2023-01-12T01:00:41.529Z,10.10
2023-01-12T01:05:25.755Z,10.20
2023-01-12T01:11:44.716Z,10.20
2023-01-12T01:18:04.365Z,10.20
2023-01-12T01:23:58.787Z,10.20
2023-01-12T01:29:41.135Z,10.20
2023-01-12T01:35:52.184Z,10.20
2023-01-12T01:42:27.934Z,10.30
2023-01-12T01:48:22.564Z,10.30
2023-01-12T01:53:27.886Z,10.20
2023-01-12T01:57:20.244Z,10.20
2023-01-12T02:01:52.400Z,10.10
2023-01-12T02:06:24.742Z,10.10
2023-01-12T02:12:58.105Z,10.10
2023-01-12T02:18:30.900Z,10.10
2023-01-12T02:24:17.362Z,10.10
2023-01-12T02:28:39.063Z,10.10
2023-01-12T02:33:54.272Z,10.10
2023-01-12T02:39:03.729Z,10.10
2023-01-12T02:43:28.393Z,10.10
2023-01-12T02:49:41.536Z,10.10
2023-01-12T02:54:01.545Z,10.10
2023-01-12T02:59:04.752Z,10.10
2023-01-12T03:05:23.137Z,10.00
2023-01-12T03:11:18.538Z,10.00
2023-01-12T03:17:17.168Z,10.00
2023-01-12T03:23:58.129Z,10.00
2023-01-12T03:30:20.502Z,10.00
2023-01-12T03:36:17.295Z,10.00
2023-01-12T03:42:31.815Z,10.00
2023-01-12T03:49:32.540Z,10.00
2023-01-12T03:53:24.430Z,10.00
2023-01-12T03:56:56.545Z,10.00
2023-01-12T04:02:49.533Z,10.00
2023-01-12T04:09:08.304Z,10.00
2023-01-12T04:15:10.335Z,10.00
2023-01-12T04:21:47.284Z,10.00
2023-01-12T04:28:07.317Z,10.00
2023-01-12T04:33:26.421Z,10.00
2023-01-12T04:39:26.216Z,10.00
2023-01-12T04:43:22.456Z,10.00
2023-01-12T04:48:52.924Z,10.20
2023-01-12T04:54:13.993Z,10.10
2023-01-12T04:57:18.310Z,10.10
2023-01-12T05:01:17.564Z,10.20
2023-01-12T05:03:50.269Z,10.20
2023-01-12T05:06:17.092Z,10.20
2023-01-12T05:09:03.355Z,10.20
2023-01-12T05:11:43.642Z,10.20
2023-01-12T05:14:10.450Z,10.30
2023-01-12T05:16:39.812Z,10.30
2023-01-12T05:22:09.464Z,10.30
2023-01-12T05:25:09.870Z,10.30
2023-01-12T05:27:42.335Z,10.30
2023-01-12T05:30:10.505Z,10.40
2023-01-12T05:33:57.494Z,10.40
2023-01-12T05:38:11.315Z,10.40
2023-01-12T05:44:29.731Z,10.40
2023-01-12T05:48:27.967Z,10.50
2023-01-12T05:54:11.007Z,10.50
2023-01-12T05:59:22.776Z,10.50
2023-01-12T06:01:49.608Z,10.60
2023-01-12T06:04:44.216Z,10.60
2023-01-12T06:07:39.895Z,10.70
2023-01-12T06:12:33.154Z,10.70
2023-01-12T06:15:17.976Z,10.70
2023-01-12T06:18:22.911Z,10.70
2023-01-12T06:22:04.260Z,10.80
2023-01-12T06:24:50.523Z,10.80
2023-01-12T06:28:15.009Z,10.70
2023-01-12T06:31:22.485Z,10.90
2023-01-12T06:34:07.597Z,10.80
2023-01-12T06:40:15.174Z,10.80
2023-01-12T06:44:53.900Z,10.90
2023-01-12T06:48:38.701Z,11.00
2023-01-12T06:52:52.415Z,11.00
2023-01-12T06:55:50.556Z,11.00
2023-01-12T07:00:26.190Z,11.00
2023-01-12T07:04:11.641Z,11.00
2023-01-12T07:07:31.220Z,11.00
2023-01-12T07:13:44.952Z,11.10
2023-01-12T07:17:28.778Z,11.10
2023-01-12T07:20:07.149Z,11.10
2023-01-12T07:25:25.089Z,11.10
2023-01-12T07:31:19.573Z,11.10
2023-01-12T07:37:14.113Z,11.20
2023-01-12T07:43:04.581Z,11.20
2023-01-12T07:47:28.251Z,11.30
2023-01-12T07:53:02.079Z,11.30
2023-01-12T07:58:27.847Z,11.40
2023-01-12T08:04:18.153Z,11.50
2023-01-12T08:08:16.995Z,11.50
2023-01-12T08:11:07.593Z,11.50
2023-01-12T08:16:37.867Z,11.50
2023-01-12T08:22:57.676Z,11.60
2023-01-12T08:29:23.414Z,11.60
2023-01-12T08:35:15.355Z,11.60
2023-01-12T08:38:30.343Z,11.50
2023-01-12T08:42:41.203Z,11.50
2023-01-12T08:47:06.169Z,11.60
2023-01-12T08:52:37.577Z,11.60
2023-01-12T08:58:32.322Z,11.60
2023-01-12T09:04:26.790Z,11.60
2023-01-12T09:10:41.219Z,11.60
2023-01-12T09:16:35.838Z,11.60
2023-01-12T09:22:54.513Z,11.60
2023-01-12T09:29:13.149Z,11.60
2023-01-12T09:35:07.707Z,11.50
2023-01-12T09:41:03.794Z,11.60
2023-01-12T09:47:53.795Z,11.60
2023-01-12T09:54:12.552Z,11.60
2023-01-12T10:00:07.080Z,11.70
2023-01-12T10:06:01.813Z,11.70
2023-01-12T10:12:30.647Z,11.80
2023-01-12T10:18:50.002Z,11.70
2023-01-12T10:24:44.407Z,11.70
2023-01-12T10:30:32.170Z,11.70
2023-01-12T10:36:54.356Z,11.70
2023-01-12T10:43:21.696Z,11.70
2023-01-12T10:49:16.091Z,11.70
2023-01-12T10:55:18.783Z,11.60
2023-01-12T11:02:13.913Z,11.60
2023-01-12T11:08:32.709Z,11.60
2023-01-12T11:14:28.097Z,11.50
2023-01-12T11:20:41.319Z,11.50
2023-01-12T11:27:14.216Z,11.50
2023-01-12T11:33:53.400Z,11.50
2023-01-12T11:39:49.905Z,11.50
2023-01-12T11:45:52.523Z,11.50
2023-01-12T11:52:23.045Z,11.50
2023-01-12T11:58:41.407Z,11.50
2023-01-12T12:05:19.346Z,11.50
2023-01-12T12:09:12.790Z,11.50
2023-01-12T12:13:41.419Z,11.50
2023-01-12T12:20:21.793Z,11.50
2023-01-12T12:27:03.130Z,11.40
2023-01-12T12:33:33.194Z,11.40
2023-01-12T12:39:01.075Z,11.40
2023-01-12T12:45:17.747Z,11.40
2023-01-12T12:51:43.044Z,11.40
2023-01-12T12:58:07.151Z,11.40
2023-01-12T13:04:01.904Z,11.30
2023-01-12T13:07:37.194Z,11.30
2023-01-12T13:12:23.803Z,11.30
2023-01-12T13:18:51.672Z,11.30
2023-01-12T13:25:15.080Z,11.30
2023-01-12T13:31:31.609Z,11.30
2023-01-12T13:37:23.362Z,11.30
2023-01-12T13:41:12.000Z,11.30
2023-01-12T13:47:32.955Z,11.30
2023-01-12T13:53:39.344Z,11.30
2023-01-12T13:59:35.008Z,11.30
2023-01-12T14:06:00.670Z,11.30
2023-01-12T14:12:45.500Z,11.30
2023-01-12T14:18:44.084Z,11.30
2023-01-12T14:24:38.570Z,11.30
2023-01-12T14:30:57.098Z,11.30
2023-01-12T14:37:26.180Z,11.30
2023-01-12T14:43:06.423Z,11.20
2023-01-12T14:48:57.067Z,11.20
2023-01-12T14:55:19.354Z,11.30
2023-01-12T15:01:38.233Z,11.30
2023-01-12T15:07:34.011Z,11.20
2023-01-12T15:13:30.677Z,11.20
2023-01-12T15:20:00.620Z,11.30
2023-01-12T15:25:52.209Z,11.30
2023-01-12T15:36:27.619Z,11.40
2023-01-12T15:42:01.331Z,11.40
2023-01-12T15:46:54.286Z,11.40
2023-01-12T15:53:21.841Z,11.30
2023-01-12T15:59:40.230Z,11.30
2023-01-12T16:05:34.636Z,11.30
2023-01-12T16:11:29.181Z,11.30
2023-01-12T16:17:46.159Z,11.30
2023-01-12T16:25:55.918Z,11.30
2023-01-12T16:31:50.970Z,11.30
2023-01-12T16:37:46.458Z,11.20
2023-01-12T16:44:05.131Z,11.30
2023-01-12T16:50:23.518Z,11.30
2023-01-12T16:56:31.941Z,11.30
2023-01-12T17:02:27.442Z,11.30
2023-01-12T17:08:47.527Z,11.30
2023-01-12T17:13:52.114Z,11.30
2023-01-12T17:19:43.039Z,11.30
2023-01-12T17:25:33.480Z,11.30
2023-01-12T17:31:52.610Z,11.40
2023-01-12T17:38:12.081Z,11.30
2023-01-12T17:44:07.126Z,11.40
2023-01-12T17:50:13.660Z,11.30
2023-01-12T17:56:34.428Z,11.30
2023-01-12T18:02:53.924Z,11.40
2023-01-12T18:08:49.734Z,11.30
2023-01-12T18:14:44.231Z,11.40
2023-01-12T18:21:08.451Z,11.40
2023-01-12T18:27:26.862Z,11.40
2023-01-12T18:33:21.199Z,11.40
2023-01-12T18:39:22.814Z,11.40
2023-01-12T18:45:42.346Z,11.40
2023-01-12T18:52:19.603Z,11.50
2023-01-12T18:58:29.532Z,11.50
2023-01-12T19:04:37.766Z,11.40
2023-01-12T19:10:56.938Z,11.40
2023-01-12T19:17:27.511Z,11.50
2023-01-12T19:23:41.639Z,11.50
2023-01-12T19:29:39.255Z,11.50
2023-01-12T19:35:59.320Z,11.50
2023-01-12T19:42:37.444Z,11.50
2023-01-12T19:48:32.888Z,11.50
2023-01-12T19:54:39.393Z,11.50
2023-01-12T20:00:59.146Z,11.40
2023-01-12T20:07:19.281Z,11.30
2023-01-12T20:13:13.752Z,11.20
2023-01-12T20:19:08.223Z,11.20
2023-01-12T20:25:28.188Z,11.30
2023-01-12T20:31:46.730Z,11.30
2023-01-12T20:37:41.112Z,11.30
2023-01-12T20:43:35.688Z,11.20
2023-01-12T20:49:54.635Z,11.10
2023-01-12T20:56:13.003Z,11.10
2023-01-12T21:02:20.184Z,10.90
2023-01-12T21:08:15.093Z,10.90
2023-01-12T21:14:34.014Z,10.90
2023-01-12T21:20:52.411Z,10.80
2023-01-12T21:26:46.769Z,10.70
2023-01-12T21:32:43.494Z,10.70
2023-01-12T21:39:02.027Z,10.70
2023-01-12T21:45:20.426Z,10.70
2023-01-12T21:51:15.449Z,10.60
2023-01-12T21:57:21.934Z,10.50
2023-01-12T22:03:40.687Z,10.50
2023-01-12T22:10:18.970Z,10.50
2023-01-12T22:16:14.016Z,10.40
2023-01-12T22:22:08.572Z,10.40
2023-01-12T22:28:27.085Z,10.30
2023-01-12T22:34:45.459Z,10.20
2023-01-12T22:40:39.905Z,10.20
2023-01-12T22:46:34.658Z,10.10
2023-01-12T22:52:54.701Z,10.20
2023-01-12T22:59:14.214Z,10.20
2023-01-12T23:05:20.685Z,10.00
2023-01-12T23:11:23.431Z,9.80
2023-01-12T23:17:41.931Z,9.70
2023-01-12T23:24:00.409Z,9.70
2023-01-12T23:29:54.797Z,9.70
2023-01-12T23:35:49.256Z,9.60
2023-01-12T23:42:07.744Z,9.60
2023-01-12T23:48:26.166Z,9.60
2023-01-12T23:54:20.516Z,9.50
